Time;durP1;ratioP1;P1;durP2;ratioP2;P2;SDS_P1;SDS_P2;PMS_P1;PMS_P2;Temp;Humidity;BMP_temperature;BMP_pressure;BME280_temperature;BME280_humidity;BME280_pressure;Samples;Min_cycle;Max_cycle;Signal;HPM_P1;HPM_P2
2021/09/13 00:01:38;;;;;;;3.70;3.40;;;16.90;99.90;;;;;;4999029;28;20188;-80
2021/09/13 00:04:04;;;;;;;4.03;3.73;;;16.90;99.90;;;;;;4998898;28;20182;-80
2021/09/13 00:06:30;;;;;;;3.37;3.17;;;16.90;99.90;;;;;;4998452;28;20662;-80
2021/09/13 00:08:55;;;;;;;3.70;3.40;;;16.90;99.90;;;;;;5004632;28;20206;-80
2021/09/13 00:11:21;;;;;;;3.73;3.43;;;16.90;99.90;;;;;;5004102;28;20179;-80
2021/09/13 00:13:47;;;;;;;4.37;3.60;;;16.90;99.90;;;;;;4999893;28;20214;-79
2021/09/13 00:16:13;;;;;;;3.97;3.67;;;16.90;99.90;;;;;;5018840;28;20201;-80
2021/09/13 00:18:39;;;;;;;3.60;3.30;;;16.90;99.90;;;;;;5000565;28;20191;-80
2021/09/13 00:21:04;;;;;;;3.30;3.10;;;16.90;99.90;;;;;;5003572;28;20186;-79
2021/09/13 00:23:30;;;;;;;5.73;3.60;;;16.90;99.90;;;;;;5000879;28;20219;-80
2021/09/13 00:25:56;;;;;;;4.00;3.63;;;16.90;99.90;;;;;;5005347;28;20283;-80
2021/09/13 00:28:21;;;;;;;5.10;3.20;;;16.90;99.90;;;;;;5004340;28;20221;-80
2021/09/13 00:30:49;;;;;;;3.73;3.30;;;16.90;99.90;;;;;;5003989;28;20670;-79
2021/09/13 00:33:14;;;;;;;3.33;3.03;;;16.80;99.90;;;;;;5003290;28;20182;-80
2021/09/13 00:35:40;;;;;;;3.67;3.37;;;16.80;99.90;;;;;;5011030;28;20239;-80
2021/09/13 00:38:05;;;;;;;4.13;3.33;;;16.80;99.90;;;;;;5021498;28;20183;-80
2021/09/13 00:40:31;;;;;;;3.87;3.57;;;16.80;99.90;;;;;;5021429;28;20174;-80
2021/09/13 00:42:57;;;;;;;3.67;3.37;;;16.80;99.90;;;;;;5020772;28;20194;-80
2021/09/13 00:45:23;;;;;;;3.87;3.57;;;16.70;99.90;;;;;;5021112;28;20618;-80
2021/09/13 00:47:49;;;;;;;5.00;3.57;;;16.70;99.90;;;;;;5021279;28;20209;-79
2021/09/13 00:50:14;;;;;;;3.87;3.23;;;16.70;99.90;;;;;;5020812;28;20183;-80
2021/09/13 00:52:45;;;;;;;3.40;3.10;;;16.60;99.90;;;;;;5021191;28;20256;-80
2021/09/13 00:55:11;;;;;;;3.40;3.20;;;16.60;99.90;;;;;;5019863;28;20182;-79
2021/09/13 00:57:36;;;;;;;3.80;3.40;;;16.60;99.90;;;;;;5020863;28;20721;-80
2021/09/13 01:00:05;;;;;;;3.40;3.20;;;16.60;99.90;;;;;;5020330;28;20186;-79
2021/09/13 01:02:31;;;;;;;3.73;3.43;;;16.60;99.90;;;;;;5021236;28;20170;-79
2021/09/13 01:04:57;;;;;;;4.27;3.60;;;16.60;99.90;;;;;;5021013;28;20209;-80
2021/09/13 01:07:23;;;;;;;3.10;2.90;;;16.60;99.90;;;;;;5020715;28;20303;-79
2021/09/13 01:09:48;;;;;;;3.17;2.90;;;16.50;99.90;;;;;;5020931;28;20180;-80
2021/09/13 01:12:15;;;;;;;3.43;3.13;;;16.50;99.90;;;;;;5020184;28;20264;-79
2021/09/13 01:14:41;;;;;;;3.30;3.00;;;16.50;99.90;;;;;;5020699;28;20182;-79
2021/09/13 01:17:08;;;;;;;3.70;3.40;;;16.50;99.90;;;;;;5019613;28;20328;-80
2021/09/13 01:19:34;;;;;;;3.37;3.07;;;16.50;99.90;;;;;;5018743;28;20273;-80
2021/09/13 01:22:02;;;;;;;3.60;3.30;;;16.50;99.90;;;;;;5021124;28;20252;-80
2021/09/13 01:24:29;;;;;;;3.40;3.10;;;16.50;99.90;;;;;;5019585;28;20209;-80
2021/09/13 01:27:04;;;;;;;7.97;3.00;;;16.50;99.90;;;;;;5020569;28;20237;-80
2021/09/13 01:29:29;;;;;;;3.67;3.37;;;16.50;99.90;;;;;;5021086;28;20177;-80
2021/09/13 01:31:55;;;;;;;3.40;3.10;;;16.40;99.90;;;;;;5019314;28;20178;-80
2021/09/13 01:34:21;;;;;;;4.30;3.00;;;16.40;99.90;;;;;;5020582;28;20178;-80
2021/09/13 01:36:47;;;;;;;3.33;3.13;;;16.40;99.90;;;;;;5019290;28;20315;-80
2021/09/13 01:39:12;;;;;;;3.10;2.80;;;16.30;99.90;;;;;;5018648;28;20269;-80
2021/09/13 01:41:38;;;;;;;3.20;3.00;;;16.30;99.90;;;;;;5019604;28;20175;-80
2021/09/13 01:44:04;;;;;;;3.53;3.23;;;16.30;99.90;;;;;;5018731;28;20726;-79
2021/09/13 01:46:30;;;;;;;4.87;3.27;;;16.30;99.90;;;;;;5017829;28;20627;-80
2021/09/13 01:48:56;;;;;;;3.60;3.30;;;16.30;99.90;;;;;;5019520;28;20198;-80
2021/09/13 01:51:22;;;;;;;3.00;2.80;;;16.30;99.90;;;;;;5017920;28;20182;-80
2021/09/13 01:53:47;;;;;;;4.47;3.00;;;16.30;99.90;;;;;;5014625;28;20186;-79
2021/09/13 01:56:14;;;;;;;3.60;3.30;;;16.20;99.90;;;;;;5024401;28;20735;-80
2021/09/13 01:58:39;;;;;;;3.63;3.30;;;16.20;99.90;;;;;;5017228;28;20177;-80
2021/09/13 02:01:05;;;;;;;3.70;3.50;;;16.20;99.90;;;;;;5017839;28;20184;-80
2021/09/13 02:03:31;;;;;;;3.70;3.40;;;16.10;99.90;;;;;;5019419;28;20283;-79
2021/09/13 02:05:57;;;;;;;4.57;3.27;;;16.10;99.90;;;;;;5017566;28;20203;-79
2021/09/13 02:08:23;;;;;;;3.47;3.20;;;16.10;99.90;;;;;;5018544;28;20616;-80
2021/09/13 02:10:49;;;;;;;4.37;3.60;;;16.10;99.90;;;;;;5018384;28;20262;-80
2021/09/13 02:13:15;;;;;;;3.20;3.00;;;16.10;99.90;;;;;;5017929;28;20182;-80
2021/09/13 02:15:40;;;;;;;3.50;3.30;;;16.10;99.90;;;;;;5018783;28;20249;-79
2021/09/13 02:18:06;;;;;;;4.27;3.23;;;16.00;99.90;;;;;;5017699;28;20186;-80
2021/09/13 02:20:32;;;;;;;3.77;3.27;;;16.00;99.90;;;;;;5018614;28;20183;-80
2021/09/13 02:22:58;;;;;;;3.70;3.40;;;16.00;99.90;;;;;;5017596;28;20183;-79
2021/09/13 02:25:23;;;;;;;3.90;3.60;;;16.00;99.90;;;;;;5016756;28;20582;-79
2021/09/13 02:27:49;;;;;;;3.40;3.10;;;15.90;99.90;;;;;;5016139;28;20202;-79
2021/09/13 02:30:15;;;;;;;3.43;3.10;;;15.90;99.90;;;;;;5019252;28;20177;-80
2021/09/13 02:32:40;;;;;;;4.27;3.40;;;15.90;99.90;;;;;;5016894;28;20262;-80
2021/09/13 02:35:07;;;;;;;3.60;3.20;;;15.90;99.90;;;;;;5015792;28;20281;-79
2021/09/13 02:37:35;;;;;;;3.10;2.90;;;15.80;99.90;;;;;;5018665;28;20728;-80
2021/09/13 02:40:02;;;;;;;3.23;2.97;;;15.70;99.90;;;;;;5017995;28;20177;-79
2021/09/13 02:42:28;;;;;;;3.30;3.10;;;15.60;99.90;;;;;;5017573;28;20186;-80
2021/09/13 02:44:53;;;;;;;5.80;3.17;;;15.60;99.90;;;;;;5017894;28;20552;-79
2021/09/13 02:47:19;;;;;;;3.97;3.37;;;15.60;99.90;;;;;;5017007;28;20246;-79
2021/09/13 02:49:45;;;;;;;3.03;2.83;;;15.50;99.90;;;;;;5018086;28;20231;-79
2021/09/13 02:52:10;;;;;;;3.20;3.00;;;15.60;99.90;;;;;;5016985;28;20175;-80
2021/09/13 02:54:36;;;;;;;3.20;3.00;;;15.60;99.90;;;;;;5014195;28;20181;-78
2021/09/13 02:57:02;;;;;;;4.07;3.23;;;15.60;99.90;;;;;;5015198;28;20197;-80
2021/09/13 02:59:28;;;;;;;2.87;2.67;;;15.50;99.90;;;;;;5018237;28;20298;-80
2021/09/13 03:01:53;;;;;;;4.40;3.30;;;15.50;99.90;;;;;;5016993;28;20179;-77
2021/09/13 03:04:19;;;;;;;3.70;3.40;;;15.50;99.90;;;;;;5014819;28;20173;-78
2021/09/13 03:06:45;;;;;;;3.80;3.50;;;15.50;99.90;;;;;;5013679;28;20202;-77
2021/09/13 03:09:10;;;;;;;4.30;3.90;;;15.50;99.90;;;;;;5013714;28;20179;-78
2021/09/13 03:11:36;;;;;;;4.00;3.70;;;15.40;99.90;;;;;;5015201;28;20199;-78
2021/09/13 03:14:01;;;;;;;3.97;3.67;;;15.50;99.90;;;;;;5015360;28;20298;-79
2021/09/13 03:16:27;;;;;;;3.80;3.53;;;15.40;99.90;;;;;;5018573;28;20322;-79
2021/09/13 03:18:53;;;;;;;3.53;3.23;;;15.40;99.90;;;;;;5018388;28;20183;-79
2021/09/13 03:21:18;;;;;;;4.97;4.13;;;15.40;99.90;;;;;;5016891;28;20221;-79
2021/09/13 03:23:44;;;;;;;3.77;3.53;;;15.40;99.90;;;;;;5018349;28;20221;-80
2021/09/13 03:26:10;;;;;;;3.63;3.40;;;15.40;99.90;;;;;;5018312;28;20328;-80
2021/09/13 03:28:35;;;;;;;3.50;3.30;;;15.40;99.90;;;;;;5017910;28;20203;-79
2021/09/13 03:31:02;;;;;;;3.77;3.47;;;15.40;99.90;;;;;;5017436;28;20180;-79
2021/09/13 03:33:28;;;;;;;4.17;3.77;;;15.30;99.90;;;;;;5018235;28;20167;-79
2021/09/13 03:35:54;;;;;;;3.90;3.63;;;15.30;99.90;;;;;;5016375;28;20276;-79
2021/09/13 03:38:19;;;;;;;4.47;3.80;;;15.30;99.90;;;;;;5017092;28;20176;-79
2021/09/13 03:40:45;;;;;;;3.90;3.60;;;15.30;99.90;;;;;;5017848;28;20183;-79
2021/09/13 03:43:11;;;;;;;4.07;3.77;;;15.30;99.90;;;;;;5021001;28;20210;-79
2021/09/13 03:45:37;;;;;;;4.10;3.70;;;15.20;99.90;;;;;;5020871;28;20682;-79
2021/09/13 03:48:02;;;;;;;4.60;3.67;;;15.20;99.90;;;;;;5021727;28;20207;-79
2021/09/13 03:50:28;;;;;;;4.77;3.80;;;15.20;99.90;;;;;;5021553;28;20263;-79
2021/09/13 03:52:54;;;;;;;4.60;3.30;;;15.20;99.90;;;;;;5018551;28;20176;-79
2021/09/13 03:55:19;;;;;;;4.70;3.60;;;15.20;99.90;;;;;;5024283;28;20175;-79
2021/09/13 03:57:45;;;;;;;4.37;3.63;;;15.30;99.90;;;;;;5025481;28;20650;-79
2021/09/13 04:00:11;;;;;;;5.57;3.33;;;15.20;99.90;;;;;;5022577;28;20632;-78
2021/09/13 04:02:40;;;;;;;3.83;3.43;;;15.20;99.90;;;;;;5021288;28;20190;-80
2021/09/13 04:05:08;;;;;;;3.77;3.47;;;15.20;99.90;;;;;;5022370;28;20230;-80
2021/09/13 04:08:18;;;;;;;3.70;3.40;;;15.20;99.90;;;;;;5008897;28;20203;-79
2021/09/13 04:10:28;;;;;;;3.37;3.17;;;15.20;99.90;;;;;;5015580;28;20195;-79
2021/09/13 04:12:54;;;;;;;3.40;3.10;;;15.20;99.90;;;;;;5021995;28;20182;-79
2021/09/13 04:15:19;;;;;;;3.50;3.20;;;15.10;99.90;;;;;;5021477;28;20651;-80
2021/09/13 04:17:45;;;;;;;3.87;3.57;;;15.10;99.90;;;;;;5022090;28;20184;-79
2021/09/13 04:20:11;;;;;;;4.00;3.47;;;15.10;99.90;;;;;;5021864;28;20265;-79
2021/09/13 04:22:37;;;;;;;3.93;3.63;;;15.10;99.90;;;;;;5022417;28;20681;-79
2021/09/13 04:25:04;;;;;;;3.67;3.37;;;15.20;99.90;;;;;;5022155;28;20191;-78
2021/09/13 04:27:30;;;;;;;3.33;3.13;;;15.10;99.90;;;;;;5021573;28;20266;-80
2021/09/13 04:29:57;;;;;;;4.10;3.80;;;15.00;99.90;;;;;;5021514;28;20171;-79
2021/09/13 04:32:23;;;;;;;3.73;3.20;;;15.00;99.90;;;;;;5011801;28;20215;-79
2021/09/13 04:34:48;;;;;;;4.00;3.70;;;15.00;99.90;;;;;;5020234;28;20183;-79
2021/09/13 04:37:14;;;;;;;4.53;4.13;;;15.00;99.90;;;;;;5016565;28;20246;-80
2021/09/13 04:39:40;;;;;;;3.70;3.43;;;14.90;99.90;;;;;;5018401;28;20187;-79
2021/09/13 04:42:05;;;;;;;3.97;3.67;;;14.90;99.90;;;;;;5018604;28;20187;-80
2021/09/13 04:44:31;;;;;;;4.30;3.90;;;15.20;99.90;;;;;;5021937;28;20183;-80
2021/09/13 04:46:57;;;;;;;3.67;3.37;;;15.30;99.90;;;;;;5021308;28;20295;-79
2021/09/13 04:49:24;;;;;;;3.50;3.20;;;14.70;99.90;;;;;;5019969;28;20179;-80
2021/09/13 04:51:51;;;;;;;3.57;3.27;;;14.80;99.90;;;;;;5020623;28;20295;-79
2021/09/13 04:54:16;;;;;;;3.40;3.20;;;14.80;99.90;;;;;;5020679;28;20233;-80
2021/09/13 04:56:42;;;;;;;3.30;3.10;;;14.70;99.90;;;;;;5020759;28;20232;-79
2021/09/13 04:59:11;;;;;;;4.40;3.37;;;14.70;99.90;;;;;;5021039;28;20175;-79
2021/09/13 05:01:37;;;;;;;3.70;3.23;;;14.70;99.90;;;;;;5020726;28;20198;-79
2021/09/13 05:04:12;;;;;;;3.83;3.53;;;14.90;99.90;;;;;;5020995;28;20187;-79
2021/09/13 05:06:38;;;;;;;3.70;3.40;;;14.60;99.90;;;;;;5012644;28;20252;-80
2021/09/13 05:09:04;;;;;;;3.97;3.67;;;14.80;99.90;;;;;;5019818;28;20207;-80
2021/09/13 05:11:30;;;;;;;5.63;3.77;;;14.60;99.90;;;;;;5013429;28;20188;-80
2021/09/13 05:13:56;;;;;;;5.20;4.33;;;14.70;99.90;;;;;;5010830;28;20603;-79
2021/09/13 05:16:22;;;;;;;4.87;3.40;;;14.70;99.90;;;;;;5018568;28;20199;-79
2021/09/13 05:18:47;;;;;;;4.37;3.87;;;14.70;99.90;;;;;;5008031;28;20219;-78
2021/09/13 05:21:14;;;;;;;6.73;3.83;;;14.60;99.90;;;;;;5020568;28;20285;-79
2021/09/13 05:23:39;;;;;;;7.97;3.90;;;14.60;99.90;;;;;;5003083;28;20254;-78
2021/09/13 05:26:05;;;;;;;3.70;3.40;;;14.60;99.90;;;;;;5015402;28;20686;-79
2021/09/13 05:28:31;;;;;;;3.97;3.67;;;14.60;99.90;;;;;;5017528;28;20228;-78
2021/09/13 05:30:57;;;;;;;3.97;3.67;;;14.60;99.90;;;;;;5013714;28;20188;-79
2021/09/13 05:33:22;;;;;;;4.13;3.40;;;14.50;99.90;;;;;;5018717;28;20199;-79
2021/09/13 05:35:48;;;;;;;4.17;3.40;;;14.50;99.90;;;;;;5017874;28;20219;-78
2021/09/13 05:38:15;;;;;;;4.03;3.73;;;14.50;99.90;;;;;;5016919;28;20191;-79
2021/09/13 05:40:44;;;;;;;4.13;3.57;;;14.50;99.90;;;;;;5017728;28;20206;-79
2021/09/13 05:43:10;;;;;;;4.90;3.57;;;14.50;99.90;;;;;;5015587;28;20187;-79
2021/09/13 05:45:37;;;;;;;4.00;3.70;;;14.60;99.90;;;;;;5015366;28;20210;-78
2021/09/13 05:48:04;;;;;;;4.80;3.77;;;14.60;99.90;;;;;;5017213;28;20203;-79
2021/09/13 05:50:29;;;;;;;4.10;3.80;;;14.60;99.90;;;;;;5019610;28;20599;-79
2021/09/13 05:52:55;;;;;;;5.17;4.00;;;14.60;99.90;;;;;;5017401;28;20182;-79
2021/09/13 05:55:21;;;;;;;5.13;4.57;;;14.60;99.90;;;;;;5018941;28;20210;-80
2021/09/13 05:57:47;;;;;;;4.00;3.70;;;14.60;99.90;;;;;;5020724;28;20175;-79
2021/09/13 06:00:14;;;;;;;4.00;3.60;;;14.70;99.90;;;;;;5019741;28;20175;-79
2021/09/13 06:02:40;;;;;;;5.87;4.03;;;14.70;99.90;;;;;;5019136;28;20183;-79
2021/09/13 06:05:06;;;;;;;4.40;3.50;;;14.70;99.90;;;;;;5018003;28;20175;-79
2021/09/13 06:07:32;;;;;;;5.30;3.80;;;14.80;99.90;;;;;;5019905;28;20654;-79
2021/09/13 06:09:58;;;;;;;3.40;3.20;;;14.80;99.90;;;;;;5019063;28;20214;-79
2021/09/13 06:12:23;;;;;;;4.50;4.07;;;14.90;99.90;;;;;;5020041;28;20182;-79
2021/09/13 06:14:51;;;;;;;4.10;3.40;;;14.80;99.90;;;;;;5018091;28;20182;-78
2021/09/13 06:17:17;;;;;;;3.77;3.50;;;14.90;99.90;;;;;;5013444;28;20281;-79
2021/09/13 06:19:43;;;;;;;4.50;4.10;;;15.00;99.90;;;;;;5016044;28;20187;-79
2021/09/13 06:22:08;;;;;;;5.93;4.20;;;15.00;99.90;;;;;;5017702;28;20558;-79
2021/09/13 06:24:35;;;;;;;4.83;3.90;;;15.10;99.90;;;;;;5016159;28;20175;-79
2021/09/13 06:27:01;;;;;;;4.30;4.00;;;15.10;99.90;;;;;;5015671;28;20250;-79
2021/09/13 06:29:26;;;;;;;4.60;4.20;;;15.20;99.90;;;;;;5014533;28;20646;-79
2021/09/13 06:31:52;;;;;;;5.17;3.77;;;15.30;99.90;;;;;;5016487;28;20267;-79
2021/09/13 06:34:18;;;;;;;4.63;4.03;;;15.30;99.90;;;;;;5017325;28;20175;-79
2021/09/13 06:36:45;;;;;;;6.13;4.10;;;15.40;99.90;;;;;;5018739;28;20210;-79
2021/09/13 06:39:11;;;;;;;6.37;3.77;;;15.50;99.90;;;;;;5018260;28;20646;-79
2021/09/13 06:41:37;;;;;;;5.63;3.93;;;15.50;99.90;;;;;;5017663;28;20175;-79
2021/09/13 06:44:04;;;;;;;5.07;3.97;;;15.50;99.90;;;;;;5019447;28;20183;-79
2021/09/13 06:46:50;;;;;;;6.80;3.53;;;15.60;99.90;;;;;;5018035;28;20199;-79
2021/09/13 06:49:18;;;;;;;4.67;4.30;;;15.60;99.90;;;;;;5012004;28;20334;-79
2021/09/13 06:51:44;;;;;;;4.10;3.80;;;15.70;99.90;;;;;;5013624;28;20171;-79
2021/09/13 06:54:10;;;;;;;4.50;3.50;;;15.80;99.90;;;;;;5018566;28;20196;-79
2021/09/13 06:56:35;;;;;;;4.67;4.27;;;15.80;99.90;;;;;;5018717;28;20196;-79
2021/09/13 06:59:01;;;;;;;5.00;4.20;;;15.90;99.90;;;;;;5018258;28;20596;-79
2021/09/13 07:01:31;;;;;;;5.67;4.13;;;15.90;99.90;;;;;;5017370;28;20190;-79
2021/09/13 07:03:57;;;;;;;7.70;4.40;;;15.90;99.90;;;;;;5017080;28;20203;-79
2021/09/13 07:06:26;;;;;;;4.43;4.10;;;16.00;99.90;;;;;;5018224;28;20282;-79
2021/09/13 07:08:51;;;;;;;4.23;3.90;;;16.00;99.90;;;;;;5018186;28;20196;-79
2021/09/13 07:11:18;;;;;;;4.27;3.83;;;16.10;99.90;;;;;;5017015;28;20182;-79
2021/09/13 07:13:43;;;;;;;4.33;3.93;;;16.20;99.90;;;;;;5018111;28;20208;-79
2021/09/13 07:16:09;;;;;;;4.63;4.27;;;16.30;99.90;;;;;;5016301;28;20211;-79
2021/09/13 07:18:35;;;;;;;5.87;4.60;;;16.30;99.90;;;;;;5015995;28;20714;-78
2021/09/13 07:21:00;;;;;;;4.67;4.27;;;16.40;99.90;;;;;;5012818;28;20175;-79
2021/09/13 07:23:26;;;;;;;4.73;4.30;;;16.40;99.90;;;;;;5016424;28;20272;-79
2021/09/13 07:25:51;;;;;;;4.97;4.47;;;16.40;99.90;;;;;;5016784;28;20235;-79
2021/09/13 07:28:17;;;;;;;5.43;4.83;;;16.50;99.90;;;;;;5016768;28;20195;-79
2021/09/13 07:30:43;;;;;;;7.90;5.30;;;16.50;99.90;;;;;;5017737;28;20177;-79
2021/09/13 07:33:08;;;;;;;6.63;6.03;;;16.50;99.90;;;;;;5017582;28;20210;-79
2021/09/13 07:35:34;;;;;;;6.30;5.57;;;16.60;99.90;;;;;;5018058;28;20263;-79
2021/09/13 07:37:59;;;;;;;6.20;5.60;;;16.60;99.90;;;;;;5017651;28;20178;-79
2021/09/13 07:40:25;;;;;;;7.10;5.97;;;16.70;99.90;;;;;;5018115;28;20181;-79
2021/09/13 07:42:51;;;;;;;6.53;6.03;;;16.70;99.90;;;;;;5018434;28;20182;-79
2021/09/13 07:45:17;;;;;;;6.63;5.97;;;16.80;99.90;;;;;;5018787;28;20204;-81
2021/09/13 07:47:43;;;;;;;6.20;5.70;;;16.80;99.90;;;;;;5018747;28;20201;-79
2021/09/13 07:50:09;;;;;;;5.57;5.17;;;16.90;99.90;;;;;;5017722;28;20177;-80
2021/09/13 07:52:35;;;;;;;6.43;5.87;;;16.90;99.90;;;;;;5018205;28;20186;-79
2021/09/13 07:55:01;;;;;;;6.27;5.67;;;17.00;99.90;;;;;;5018781;28;20175;-80
2021/09/13 07:57:28;;;;;;;5.80;5.40;;;17.00;99.90;;;;;;5019172;28;20680;-80
2021/09/13 07:59:53;;;;;;;6.73;6.00;;;17.00;99.90;;;;;;5018779;28;20182;-80
2021/09/13 08:02:19;;;;;;;6.60;5.97;;;17.10;99.90;;;;;;5018761;28;20193;-80
2021/09/13 08:04:45;;;;;;;6.30;5.80;;;17.10;99.90;;;;;;5018702;28;20179;-80
2021/09/13 08:07:10;;;;;;;6.60;6.10;;;17.10;99.90;;;;;;5017558;28;20202;-80
2021/09/13 08:09:36;;;;;;;7.60;6.80;;;17.20;99.90;;;;;;5018172;28;20175;-80
2021/09/13 08:12:02;;;;;;;8.50;7.73;;;17.30;99.90;;;;;;5015460;28;20187;-80
2021/09/13 08:14:27;;;;;;;10.63;9.23;;;17.30;99.90;;;;;;5018412;28;20179;-80
2021/09/13 08:16:53;;;;;;;16.23;10.97;;;17.30;99.90;;;;;;5017689;28;20202;-80
2021/09/13 08:19:18;;;;;;;16.50;11.93;;;17.40;99.90;;;;;;5017006;28;20179;-80
2021/09/13 08:21:45;;;;;;;29.73;19.07;;;17.40;99.90;;;;;;5018105;28;20210;-80
2021/09/13 08:24:11;;;;;;;23.27;15.43;;;17.40;99.90;;;;;;5016892;28;20178;-79
2021/09/13 08:26:39;;;;;;;31.27;17.60;;;17.40;99.90;;;;;;5018340;28;20191;-80
2021/09/13 08:29:06;;;;;;;35.53;21.27;;;17.50;99.90;;;;;;5018717;28;20677;-80
2021/09/13 08:31:32;;;;;;;25.37;16.23;;;17.60;99.90;;;;;;5020787;28;20261;-80
2021/09/13 08:33:58;;;;;;;27.87;15.20;;;17.70;99.90;;;;;;5018559;28;20171;-80
2021/09/13 08:36:24;;;;;;;28.57;17.07;;;17.80;99.90;;;;;;5018886;28;20221;-80
2021/09/13 08:38:49;;;;;;;34.30;16.10;;;17.80;99.90;;;;;;5015914;28;20183;-80
2021/09/13 08:41:15;;;;;;;28.20;15.83;;;17.80;99.90;;;;;;5016648;28;20175;-80
2021/09/13 08:43:43;;;;;;;37.00;18.60;;;17.90;99.90;;;;;;5009083;28;20180;-80
2021/09/13 08:46:13;;;;;;;30.53;17.70;;;18.00;99.90;;;;;;5021673;28;20195;-80
2021/09/13 08:53:44;;;;;;;34.83;18.43;;;18.20;99.90;;;;;;5021251;28;20234;-80
2021/09/13 08:56:15;;;;;;;32.87;18.07;;;18.20;99.90;;;;;;5020415;28;20626;-79
2021/09/13 08:58:42;;;;;;;31.07;16.03;;;18.40;99.90;;;;;;5019546;28;20192;-80
2021/09/13 09:01:08;;;;;;;28.63;16.33;;;18.50;99.90;;;;;;5019190;28;20223;-80
2021/09/13 09:03:39;;;;;;;31.67;17.80;;;18.60;99.90;;;;;;5019981;28;20182;-80
2021/09/13 09:06:05;;;;;;;30.00;16.60;;;18.70;99.90;;;;;;5020124;28;20248;-80
2021/09/13 09:08:33;;;;;;;24.83;14.67;;;18.80;99.90;;;;;;5020037;28;20190;-79
2021/09/13 09:11:03;;;;;;;22.90;12.50;;;18.80;99.90;;;;;;5020502;28;20641;-80
2021/09/13 09:13:37;;;;;;;19.17;12.23;;;18.90;99.90;;;;;;5016951;28;20183;-80
2021/09/13 09:16:04;;;;;;;22.57;13.70;;;19.10;99.90;;;;;;5019336;28;20207;-80
2021/09/13 09:18:56;;;;;;;20.57;13.33;;;19.10;99.90;;;;;;5019016;28;20210;-80
2021/09/13 09:21:24;;;;;;;21.90;13.40;;;19.20;99.90;;;;;;5019462;28;20202;-80
2021/09/13 09:24:01;;;;;;;19.80;13.07;;;19.20;99.90;;;;;;5014110;28;20560;-80
2021/09/13 09:26:28;;;;;;;20.13;13.27;;;19.20;99.90;;;;;;5019760;28;20293;-80
2021/09/13 09:28:56;;;;;;;24.63;14.97;;;19.30;99.90;;;;;;5018176;28;20195;-80
2021/09/13 09:31:45;;;;;;;18.10;12.97;;;19.40;99.90;;;;;;5020268;28;20179;-80
2021/09/13 09:34:17;;;;;;;15.47;12.00;;;19.40;99.90;;;;;;5019319;28;20198;-79
2021/09/13 09:37:07;;;;;;;15.53;11.27;;;19.50;99.90;;;;;;5017181;28;20274;-80
2021/09/13 09:39:37;;;;;;;13.00;10.50;;;19.50;99.90;;;;;;5018546;28;20213;-80
2021/09/13 09:42:04;;;;;;;13.37;10.50;;;19.60;99.90;;;;;;5020226;28;20183;-80
2021/09/13 09:44:32;;;;;;;18.93;13.07;;;19.70;99.90;;;;;;5018726;28;20206;-80
2021/09/13 09:47:20;;;;;;;13.97;11.13;;;19.80;99.90;;;;;;5017564;28;20202;-80
2021/09/13 09:49:51;;;;;;;10.40;9.37;;;20.00;99.90;;;;;;5018788;28;20262;-80
2021/09/13 09:52:42;;;;;;;10.63;8.90;;;20.10;99.90;;;;;;5017348;28;20172;-80
2021/09/13 09:55:12;;;;;;;9.83;8.83;;;20.30;99.90;;;;;;5019476;28;20172;-80
2021/09/13 09:57:39;;;;;;;9.80;8.83;;;20.20;99.90;;;;;;5018262;28;20651;-80
2021/09/13 10:00:27;;;;;;;9.50;8.50;;;20.20;99.90;;;;;;5018881;28;20269;-81
2021/09/13 10:02:54;;;;;;;10.33;9.23;;;20.30;99.90;;;;;;5017182;28;20175;-80
2021/09/13 10:05:22;;;;;;;12.87;10.37;;;20.40;99.90;;;;;;5006314;28;20190;-81
2021/09/13 10:07:48;;;;;;;8.33;7.63;;;20.40;99.90;;;;;;5018110;28;20697;-78
2021/09/13 10:10:15;;;;;;;12.23;10.93;;;20.50;99.90;;;;;;5019032;28;20290;-79
2021/09/13 10:12:41;;;;;;;14.77;10.07;;;20.60;99.90;;;;;;5016089;28;20214;-79
2021/09/13 10:15:07;;;;;;;10.47;9.47;;;20.70;99.90;;;;;;5017555;28;20179;-79
2021/09/13 10:17:34;;;;;;;10.20;8.90;;;20.80;99.90;;;;;;5019104;28;20182;-79
2021/09/13 10:20:02;;;;;;;10.13;8.70;;;20.80;99.90;;;;;;5017751;28;20246;-80
2021/09/13 10:22:30;;;;;;;8.20;6.87;;;21.00;99.90;;;;;;5018619;28;20175;-79
2021/09/13 10:24:56;;;;;;;8.43;7.07;;;21.20;99.90;;;;;;5005520;28;20179;-80
2021/09/13 10:27:23;;;;;;;9.07;8.27;;;21.40;99.90;;;;;;5008923;28;20214;-80
2021/09/13 10:30:19;;;;;;;8.33;7.53;;;21.40;99.90;;;;;;5014338;28;20179;-79
2021/09/13 10:32:47;;;;;;;10.80;7.70;;;21.40;99.90;;;;;;5009207;28;20209;-80
2021/09/13 10:35:14;;;;;;;8.43;7.53;;;21.50;99.90;;;;;;5010168;28;20182;-80
2021/09/13 10:37:44;;;;;;;8.40;7.67;;;21.60;99.90;;;;;;5009186;28;20171;-79
2021/09/13 10:40:16;;;;;;;7.50;6.80;;;21.60;99.90;;;;;;5014530;28;20175;-81
2021/09/13 10:42:50;;;;;;;8.47;7.67;;;21.70;99.90;;;;;;5011532;28;20263;-80
2021/09/13 10:45:25;;;;;;;8.70;7.83;;;21.80;99.90;;;;;;5011521;28;20199;-79
2021/09/13 10:47:59;;;;;;;9.60;7.83;;;22.10;99.90;;;;;;5011083;28;20207;-79
2021/09/13 10:50:42;;;;;;;6.50;5.77;;;22.10;99.90;;;;;;5004356;28;20175;-79
2021/09/13 10:53:17;;;;;;;10.60;8.23;;;22.20;99.90;;;;;;5011473;28;20187;-79
2021/09/13 10:55:58;;;;;;;7.87;7.17;;;22.30;99.90;;;;;;5010911;28;20198;-80
2021/09/13 10:58:33;;;;;;;6.10;5.57;;;22.40;99.90;;;;;;5006844;28;20180;-79
2021/09/13 11:01:10;;;;;;;6.83;6.23;;;22.60;99.90;;;;;;5014376;28;20181;-80
2021/09/13 11:03:38;;;;;;;6.33;5.73;;;22.50;99.90;;;;;;5015886;28;20538;-79
2021/09/13 11:06:16;;;;;;;6.50;5.90;;;22.50;99.90;;;;;;5011880;28;20206;-79
2021/09/13 11:08:56;;;;;;;7.87;7.07;;;22.60;99.90;;;;;;5013894;28;20197;-80
2021/09/13 11:11:37;;;;;;;7.97;7.27;;;22.90;99.90;;;;;;5015887;28;20164;-79
2021/09/13 11:14:12;;;;;;;8.27;7.10;;;23.00;99.90;;;;;;5024933;28;20182;-80
2021/09/13 11:16:44;;;;;;;5.93;5.30;;;23.00;99.90;;;;;;5014507;28;20187;-80
2021/09/13 11:19:11;;;;;;;7.27;5.90;;;23.00;99.90;;;;;;5013030;28;20193;-79
2021/09/13 11:21:38;;;;;;;6.53;5.93;;;23.30;99.90;;;;;;5010234;28;20183;-80
2021/09/13 11:24:13;;;;;;;6.57;6.00;;;23.40;99.90;;;;;;5016346;28;20187;-80
2021/09/13 11:26:48;;;;;;;5.97;5.47;;;23.50;99.90;;;;;;5017222;28;20229;-80
2021/09/13 11:29:35;;;;;;;5.83;5.20;;;23.70;99.90;;;;;;5023647;28;20257;-79
2021/09/13 11:32:12;;;;;;;6.23;5.70;;;23.90;99.90;;;;;;5007407;28;20183;-80
2021/09/13 11:34:43;;;;;;;6.60;5.83;;;24.00;99.90;;;;;;5009214;28;20175;-80
2021/09/13 11:37:21;;;;;;;7.33;5.20;;;24.10;99.90;;;;;;5010055;28;20206;-80
2021/09/13 11:40:00;;;;;;;6.03;5.60;;;24.10;99.90;;;;;;5020813;28;20180;-79
2021/09/13 11:42:31;;;;;;;7.83;7.10;;;24.30;99.90;;;;;;5009938;28;20171;-79
2021/09/13 11:45:05;;;;;;;7.30;6.60;;;24.40;99.90;;;;;;5014301;28;20194;-78
2021/09/13 11:47:32;;;;;;;8.80;8.10;;;24.40;99.90;;;;;;5013786;28;20213;-80
2021/09/13 11:50:00;;;;;;;8.27;7.63;;;24.40;99.90;;;;;;5013549;28;20178;-80
2021/09/13 11:52:29;;;;;;;8.20;7.50;;;24.20;99.90;;;;;;5011744;28;20171;-80
2021/09/13 11:55:04;;;;;;;7.73;7.03;;;24.20;99.90;;;;;;5012514;28;20187;-80
2021/09/13 11:57:42;;;;;;;6.97;6.37;;;24.10;99.90;;;;;;5055386;23;20220;-83
2021/09/13 12:00:16;;;;;;;8.20;7.37;;;24.20;99.90;;;;;;5053510;28;20174;-81
2021/09/13 12:02:45;;;;;;;5.13;4.73;;;24.20;99.90;;;;;;5062563;28;20192;-82
2021/09/13 12:05:14;;;;;;;4.67;4.27;;;24.50;99.90;;;;;;5046441;28;20171;-81
2021/09/13 12:07:40;;;;;;;6.20;5.50;;;24.40;99.90;;;;;;5054442;28;20252;-82
2021/09/13 12:10:07;;;;;;;5.30;4.80;;;24.40;99.90;;;;;;5055360;28;20684;-81
2021/09/13 12:12:35;;;;;;;6.53;5.07;;;24.30;99.90;;;;;;5057256;28;20171;-80
2021/09/13 12:15:05;;;;;;;5.23;4.83;;;24.30;99.90;;;;;;5055267;28;20170;-81
2021/09/13 12:17:42;;;;;;;6.00;5.40;;;24.50;99.90;;;;;;5050307;28;20675;-79
2021/09/13 12:20:15;;;;;;;4.80;4.40;;;24.60;99.90;;;;;;5058338;28;20209;-84
2021/09/13 12:22:42;;;;;;;5.30;4.90;;;24.50;99.90;;;;;;5061377;28;20197;-81
2021/09/13 12:25:10;;;;;;;5.70;5.20;;;24.50;99.90;;;;;;5050931;28;20549;-80
2021/09/13 12:27:50;;;;;;;5.00;4.60;;;24.90;99.90;;;;;;5045428;28;20201;-79
2021/09/13 12:30:25;;;;;;;4.90;4.60;;;24.90;99.90;;;;;;5039399;28;20173;-79
2021/09/13 12:32:54;;;;;;;5.37;4.97;;;24.90;99.90;;;;;;5056908;28;20178;-78
2021/09/13 12:35:40;;;;;;;4.40;4.00;;;24.80;99.90;;;;;;5049151;28;20170;-76
2021/09/13 12:38:18;;;;;;;4.87;4.47;;;24.90;99.90;;;;;;5054359;28;20600;-77
2021/09/13 12:40:50;;;;;;;4.80;4.40;;;25.00;99.90;;;;;;5045046;28;20194;-78
2021/09/13 12:43:23;;;;;;;5.80;5.30;;;25.20;99.90;;;;;;5049788;28;20169;-79
2021/09/13 12:46:00;;;;;;;5.77;4.73;;;25.20;99.90;;;;;;5062461;28;20186;-79
2021/09/13 12:48:27;;;;;;;4.50;4.20;;;25.20;99.90;;;;;;5067268;28;20284;-80
2021/09/13 12:50:55;;;;;;;4.40;4.00;;;25.10;99.90;;;;;;5063793;28;20176;-78
2021/09/13 12:53:27;;;;;;;9.87;7.77;;;25.20;99.90;;;;;;5067524;28;20188;-78